Terminal Aerodrome Forecast
Issued by NWS

Current Version | Previous Version | Text Only | Print | Product List | Glossary On
Versions: 1 2 3 4 5 6 7 8 9 10 11 12 13 14 15 16 17 18 19
117
FTUS46 KHNX 132331
TAFVIS
TAF
KVIS 132331Z 1400/1424 VRB04KT P6SM SCT200
     FM140400 VRB03KT 4SM HZ SKC
     FM140600 00000KT 3SM BR SKC
      TEMPO 1406/1410 1 1/2SM BR
     FM141000 00000KT 1 1/2SM BR SKC
      TEMPO 1412/1416 1/2SM FG VV001
     FM141800 VRB03KT 3SM HZ SKC
     FM142100 VRB04KT P6SM SKC=

USA.gov is the U.S. government's official web portal to all federal, state and local government web resources and services.